CHICAGO AURORA MUNICIPAL, IL, United States (KARR) 41-46N 088-28W 215M
Wind: from the SSE (150 degrees) at 10 MPH (9 KT):0
Visibility: 9 mile(s):0
Sky conditions: mostly clear
Temperature: 68.0 F (20.0 C)
Dew Point: 64.9 F (18.3 C)
Relative Humidity: 89%
Pressure (altimeter): 30.01 in. Hg (1016 hPa)
ob: KARR 141052Z AUTO 15009KT 9SM FEW022 20/18 A3001 RMK AO2 SLP156 T02000183
Raw METAR:KARR 141052Z AUTO 15009KT 9SM FEW022 20/18 A3001 RMK AO2 SLP156 T02000183
cycle: 11
Back to top

CHICAGO/WEST CH DUPAGE, IL, United States (KDPA) 41-54N 88-15W 230M
Wind: from the S (180 degrees) at 5 MPH (4 KT):0
Visibility: 10 mile(s):0
Sky conditions: clear
Temperature: 66.9 F (19.4 C)
Dew Point: 64.9 F (18.3 C)
Relative Humidity: 93%
Pressure (altimeter): 30.01 in. Hg (1016 hPa)
ob: KDPA 141052Z 18004KT 10SM CLR 19/18 A3001 RMK AO2 SLP156 T01940183
Raw METAR:KDPA 141052Z 18004KT 10SM CLR 19/18 A3001 RMK AO2 SLP156 T01940183
cycle: 11
Back to top

De Kalb, De Kalb Taylor Municipal Airport, IL, United States (KDKB) 41-55-55N 088-42-30W
Wind: from the S (190 degrees) at 9 MPH (8 KT):0
Visibility: 10 mile(s):0
Sky conditions: clear
Temperature: 66.4 F (19.1 C)
Dew Point: 64.6 F (18.1 C)
Relative Humidity: 93%
Pressure (altimeter): 30.01 in. Hg (1016 hPa)
ob: KDKB 141135Z AUTO 19008KT 10SM CLR 19/18 A3001 RMK AO2 T01910181
Raw METAR:KDKB 141135Z AUTO 19008KT 10SM CLR 19/18 A3001 RMK AO2 T01910181
cycle: 11
Back to top

Joliet, Joliet Regional Airport, IL, United States (KJOT) 41-31-05N 088-10-31W
Wind: from the SSE (160 degrees) at 5 MPH (4 KT):0
Visibility: 10 mile(s):0
Sky conditions: clear
Temperature: 71.6 F (22.0 C)
Dew Point: 68.9 F (20.5 C)
Relative Humidity: 91%
Pressure (altimeter): 30.02 in. Hg (1016 hPa)
ob: KJOT 141135Z AUTO 16004KT 10SM CLR 22/21 A3002 RMK AO2 T02200205
Raw METAR:KJOT 141135Z AUTO 16004KT 10SM CLR 22/21 A3002 RMK AO2 T02200205
cycle: 11
Back to top

Kankakee, Greater Kankakee Airport, IL, United States (KIKK) 41-04-17N 087-50-47W
Wind: from the SSE (150 degrees) at 8 MPH (7 KT):0
Visibility: 10 mile(s):0
Sky conditions: overcast
Temperature: 69.4 F (20.8 C)
Dew Point: 67.1 F (19.5 C)
Relative Humidity: 92%
Pressure (altimeter): 30.05 in. Hg (1017 hPa)
ob: KIKK 141135Z AUTO 15007KT 10SM BKN034 BKN046 OVC055 21/20 A3005 RMK AO2 T02080195
Raw METAR:KIKK 141135Z AUTO 15007KT 10SM BKN034 BKN046 OVC055 21/20 A3005 RMK AO2 T02080195
cycle: 11
Back to top

Morris, Morris Municipal-James R Washburn Field Airport, IL, United States (KC09) 41-25-31N 088-25-07W
Wind: from the S (180 degrees) at 5 MPH (4 KT):0
Visibility: 10 mile(s):0
Sky conditions: clear
Temperature: 69.1 F (20.6 C)
Dew Point: 68.9 F (20.5 C)
Relative Humidity: 99%
Pressure (altimeter): 30.01 in. Hg (1016 hPa)
ob: KC09 141135Z AUTO 18004KT 10SM CLR 21/21 A3001 RMK AO2 T02060205
Raw METAR:KC09 141135Z AUTO 18004KT 10SM CLR 21/21 A3001 RMK AO2 T02060205
cycle: 11
Back to top

Peru, Illinois Valley Regional-Walter A Duncan Field Airport, IL, United States (KVYS) 41-21-07N 089-09-11W
Wind: from the SSE (150 degrees) at 5 MPH (4 KT):0
Visibility: 10 mile(s):0
Sky conditions: clear
Temperature: 71.6 F (22.0 C)
Dew Point: 70.3 F (21.3 C)
Relative Humidity: 95%
Pressure (altimeter): 30 in. Hg (1015 hPa)
ob: KVYS 141135Z AUTO 15004KT 10SM CLR 22/21 A3000 RMK AO2 T02200213
Raw METAR:KVYS 141135Z AUTO 15004KT 10SM CLR 22/21 A3000 RMK AO2 T02200213
cycle: 11
Back to top

Rochelle, Rochelle Municipal-Koritz Field Airport, IL, United States (KRPJ) 41-53-35N 089-04-42W
Wind: from the SSE (160 degrees) at 3 MPH (3 KT):0
Visibility: 10 mile(s):0
Sky conditions: clear
Temperature: 67.1 F (19.5 C)
Dew Point: 65.3 F (18.5 C)
Relative Humidity: 93%
Pressure (altimeter): 29.99 in. Hg (1015 hPa)
ob: KRPJ 141135Z AUTO 16003KT 10SM CLR 20/19 A2999 RMK AO2 T01950185
Raw METAR:KRPJ 141135Z AUTO 16003KT 10SM CLR 20/19 A2999 RMK AO2 T01950185
cycle: 11
Back to top